Airport METAR Information

LTBA 272220Z 00000KT CAVOK 19/16 Q1017 NOSIG

VATSIM Livefeed

Card image cap

ATC Bookings

No position booked

Card image cap

Active ATC

No controllers online

Blog

Read our latest news and get to know us better.

TRAILS OVER THE AEGEAN

İki muhteşem şehir. İki muhteşem havalimanı. Bir muhteşem etkinlik uçmanız için sizi bekliyor! 02 Ekim Cuma günü TSİ 19:00 – 23:00 saatleri arasında Hellenic vACC ile gerçekleştireceğimiz Atina-İstanbul city link etkinliğine hepiniz davetlisiniz! Prepar3D ve Devamı…

Back to Home

Türk vACC ve Vatsim Almanya’nın Kuzey Ren-Vestfalya’daki tatillerin sonu için gerçek bir planlanmış slogandır. Gerçek hayatta her iki havalimanının en uçulan yolcu rotasıdır ve şimdi onu Vatsim’de sunuyoruz! Bu tatil servisi, yolcularınızı Türkiye’den Almanya’ya geri Devamı…